createdAt,value
2023-05-08T00:00:39.898Z,30.47
2023-05-08T00:01:39.943Z,30.46
2023-05-08T00:02:40.162Z,30.46
2023-05-08T00:03:40.331Z,30.47
2023-05-08T00:04:40.249Z,30.48
2023-05-08T00:05:40.222Z,30.46
2023-05-08T00:06:40.325Z,30.45
2023-05-08T00:07:40.388Z,30.47
2023-05-08T00:08:40.450Z,30.47
2023-05-08T00:09:40.528Z,30.47
2023-05-08T00:10:40.605Z,30.47
2023-05-08T00:11:40.693Z,30.47
2023-05-08T00:12:40.790Z,30.47
2023-05-08T00:13:40.832Z,30.50
2023-05-08T00:14:40.938Z,30.48
2023-05-08T00:15:40.982Z,30.49
2023-05-08T00:16:41.130Z,30.46
2023-05-08T00:17:41.165Z,30.46
2023-05-08T00:18:41.222Z,30.46
2023-05-08T00:19:41.202Z,30.47
2023-05-08T00:20:41.192Z,30.49
2023-05-08T00:21:41.208Z,30.48
2023-05-08T00:22:41.215Z,30.47
2023-05-08T00:23:41.240Z,30.49
2023-05-08T00:24:41.207Z,30.48
2023-05-08T00:25:41.213Z,30.50
2023-05-08T00:26:41.231Z,30.46
2023-05-08T00:27:41.216Z,30.48
2023-05-08T00:28:41.238Z,30.50
2023-05-08T00:29:41.245Z,30.50
2023-05-08T00:30:41.231Z,30.50
2023-05-08T00:31:41.279Z,30.48
2023-05-08T00:32:41.293Z,30.48
2023-05-08T00:33:41.246Z,30.47
2023-05-08T00:34:41.245Z,30.48
2023-05-08T00:35:41.253Z,30.49
2023-05-08T00:36:41.321Z,30.49
2023-05-08T00:37:41.367Z,30.50
2023-05-08T00:38:41.445Z,30.50
2023-05-08T00:39:41.532Z,30.50
2023-05-08T00:40:41.600Z,30.50
2023-05-08T00:41:41.661Z,30.47
2023-05-08T00:42:41.754Z,30.51
2023-05-08T00:43:41.813Z,30.50
2023-05-08T00:44:41.916Z,30.51
2023-05-08T00:45:41.963Z,30.52
2023-05-08T00:46:42.222Z,30.51
2023-05-08T00:47:42.145Z,30.51
2023-05-08T00:48:42.171Z,30.49
2023-05-08T00:49:42.233Z,30.50
2023-05-08T00:50:42.331Z,30.52
2023-05-08T00:51:42.388Z,30.50
2023-05-08T00:52:42.461Z,30.50
2023-05-08T00:53:42.529Z,30.53
2023-05-08T00:54:42.591Z,30.51
2023-05-08T00:55:42.647Z,30.51
2023-05-08T00:56:42.726Z,30.50
2023-05-08T00:57:42.792Z,30.54
2023-05-08T00:58:42.864Z,30.52
2023-05-08T00:59:42.958Z,30.52
2023-05-08T01:00:43.019Z,30.49
2023-05-08T01:01:43.136Z,30.49
2023-05-08T01:02:43.240Z,30.49
2023-05-08T01:03:43.262Z,30.53
2023-05-08T01:04:43.171Z,30.52
2023-05-08T01:05:43.175Z,30.52
2023-05-08T01:06:43.204Z,30.51
2023-05-08T01:07:43.187Z,30.49
2023-05-08T01:08:43.211Z,30.49
2023-05-08T01:09:43.218Z,30.50
2023-05-08T01:10:43.256Z,30.50
2023-05-08T01:11:43.324Z,30.50
2023-05-08T01:12:43.470Z,30.53
2023-05-08T01:13:43.462Z,30.51
2023-05-08T01:14:43.537Z,30.50
2023-05-08T01:15:43.636Z,30.53
2023-05-08T01:16:43.700Z,30.52
2023-05-08T01:17:43.823Z,30.52
2023-05-08T01:18:43.851Z,30.52
2023-05-08T01:19:43.919Z,30.52
2023-05-08T01:20:43.997Z,30.50
2023-05-08T01:21:44.090Z,30.52
2023-05-08T01:22:44.153Z,30.52
2023-05-08T01:23:44.236Z,30.52
2023-05-08T01:24:44.308Z,30.53
2023-05-08T01:25:44.319Z,30.52
2023-05-08T01:26:44.329Z,30.55
2023-05-08T01:27:44.335Z,30.54
2023-05-08T01:28:44.350Z,30.54
2023-05-08T01:29:44.333Z,30.54
2023-05-08T01:30:44.339Z,30.53
2023-05-08T01:31:44.346Z,30.54
2023-05-08T01:32:44.386Z,30.53
2023-05-08T01:33:44.427Z,30.54
2023-05-08T01:34:44.360Z,30.53
2023-05-08T01:35:44.393Z,30.53
2023-05-08T01:36:44.390Z,30.54
2023-05-08T01:37:44.380Z,30.50
2023-05-08T01:38:44.393Z,30.50
2023-05-08T01:39:44.394Z,30.51
2023-05-08T01:40:44.405Z,30.53
2023-05-08T01:41:44.420Z,30.52
2023-05-08T01:42:44.420Z,30.51
2023-05-08T01:43:44.431Z,30.53
2023-05-08T01:44:44.464Z,30.51
2023-05-08T01:45:44.468Z,30.53
2023-05-08T01:46:44.557Z,30.52
2023-05-08T01:47:44.630Z,30.53
2023-05-08T01:48:44.647Z,30.53
2023-05-08T01:49:44.685Z,30.52
2023-05-08T01:50:44.721Z,30.52
2023-05-08T01:51:44.780Z,30.52
2023-05-08T01:52:44.862Z,30.53
2023-05-08T01:53:44.921Z,30.52
2023-05-08T01:54:44.957Z,30.53
2023-05-08T01:55:45.002Z,30.55
2023-05-08T01:56:45.080Z,30.52
2023-05-08T01:57:45.140Z,30.54
2023-05-08T01:58:45.191Z,30.56
2023-05-08T01:59:45.243Z,30.53
2023-05-08T02:00:45.310Z,30.52
2023-05-08T02:01:45.380Z,30.54
2023-05-08T02:02:45.491Z,30.52
2023-05-08T02:03:45.454Z,30.54
2023-05-08T02:04:45.492Z,30.52
2023-05-08T02:05:45.521Z,30.56
2023-05-08T02:06:45.569Z,30.54
2023-05-08T02:07:45.599Z,30.54
2023-05-08T02:08:45.618Z,30.54
2023-05-08T02:09:45.629Z,30.55
2023-05-08T02:10:45.689Z,30.54
2023-05-08T02:11:45.753Z,30.53
2023-05-08T02:12:45.706Z,30.54
2023-05-08T02:13:45.711Z,30.55
2023-05-08T02:14:45.782Z,30.54
2023-05-08T02:15:45.749Z,30.53
2023-05-08T02:16:45.860Z,30.57
2023-05-08T02:17:45.800Z,30.53
2023-05-08T02:18:45.794Z,30.54
2023-05-08T02:19:45.783Z,30.51
2023-05-08T02:20:45.743Z,30.54
2023-05-08T02:21:45.755Z,30.54
2023-05-08T02:22:45.775Z,30.54
2023-05-08T02:23:45.825Z,30.54
2023-05-08T02:24:45.788Z,30.54
2023-05-08T02:25:45.754Z,30.53
2023-05-08T02:26:45.820Z,30.54
2023-05-08T02:27:45.792Z,30.55
2023-05-08T02:28:45.743Z,30.54
2023-05-08T02:29:46.698Z,30.52
2023-05-08T02:30:45.766Z,30.54
2023-05-08T02:31:45.854Z,30.55
2023-05-08T02:32:45.758Z,30.54
2023-05-08T02:33:45.750Z,30.54
2023-05-08T02:34:58.801Z,30.52
2023-05-08T02:35:46.761Z,30.53
2023-05-08T02:36:45.763Z,30.52
2023-05-08T02:37:45.775Z,30.54
2023-05-08T02:38:45.814Z,30.85
2023-05-08T02:39:45.770Z,30.94
2023-05-08T02:40:45.838Z,31.10
2023-05-08T02:41:46.209Z,31.21
2023-05-08T02:42:45.771Z,31.29
2023-05-08T02:43:45.757Z,31.28
2023-05-08T02:44:46.696Z,31.34
2023-05-08T02:45:45.834Z,31.45
2023-05-08T02:46:46.181Z,31.45
2023-05-08T02:47:46.707Z,31.61
2023-05-08T02:48:45.792Z,31.73
2023-05-08T02:49:45.761Z,31.86
2023-05-08T02:50:45.765Z,32.01
2023-05-08T02:51:45.796Z,32.21
2023-05-08T02:52:46.683Z,32.35
2023-05-08T02:53:45.807Z,32.53
2023-05-08T02:54:45.816Z,32.65
2023-05-08T02:55:46.691Z,32.73
2023-05-08T02:56:45.853Z,32.97
2023-05-08T02:57:45.804Z,33.04
2023-05-08T02:58:45.821Z,33.18
2023-05-08T02:59:45.817Z,33.29
2023-05-08T03:00:45.840Z,33.37
2023-05-08T03:01:45.868Z,33.39
2023-05-08T03:02:45.938Z,33.49
2023-05-08T03:03:45.977Z,33.61
2023-05-08T03:04:45.881Z,33.79
2023-05-08T03:05:45.894Z,33.86
2023-05-08T03:06:45.906Z,33.89
2023-05-08T03:07:45.908Z,34.01
2023-05-08T03:08:45.944Z,34.02
2023-05-08T03:09:45.945Z,34.08
2023-05-08T03:10:45.953Z,34.16
2023-05-08T03:11:45.983Z,34.17
2023-05-08T03:12:46.066Z,34.19
2023-05-08T03:13:45.990Z,34.22
2023-05-08T03:14:45.972Z,34.27
2023-05-08T03:15:46.055Z,34.28
2023-05-08T03:16:46.009Z,34.34
2023-05-08T03:17:46.176Z,34.37
2023-05-08T03:18:46.033Z,34.36
2023-05-08T03:19:46.074Z,34.40
2023-05-08T03:20:46.135Z,34.40
2023-05-08T03:21:46.094Z,34.38
2023-05-08T03:22:46.070Z,34.46
2023-05-08T03:23:46.089Z,34.44
2023-05-08T03:24:46.098Z,34.49
2023-05-08T03:25:46.143Z,34.50
2023-05-08T03:26:46.235Z,34.52
2023-05-08T03:27:46.144Z,34.55
2023-05-08T03:28:46.102Z,34.56
2023-05-08T03:29:46.184Z,34.55
2023-05-08T03:30:46.143Z,34.59
2023-05-08T03:31:46.187Z,34.58
2023-05-08T03:32:46.230Z,34.61
2023-05-08T03:33:46.149Z,34.62
2023-05-08T03:34:46.172Z,34.64
2023-05-08T03:35:46.286Z,34.67
2023-05-08T03:36:46.310Z,34.71
2023-05-08T03:37:46.363Z,34.75
2023-05-08T03:38:46.419Z,34.77
2023-05-08T03:39:46.491Z,34.81
2023-05-08T03:40:46.551Z,34.83
2023-05-08T03:41:46.628Z,34.87
2023-05-08T03:42:46.688Z,34.84
2023-05-08T03:43:46.742Z,34.82
2023-05-08T03:44:46.813Z,34.83
2023-05-08T03:45:46.878Z,34.88
2023-05-08T03:46:47.146Z,34.87
2023-05-08T03:47:47.028Z,34.88
2023-05-08T03:48:47.080Z,34.93
2023-05-08T03:49:47.146Z,34.95
2023-05-08T03:50:47.198Z,34.94
2023-05-08T03:51:47.273Z,34.94
2023-05-08T03:52:47.333Z,34.98
2023-05-08T03:53:47.396Z,34.97
2023-05-08T03:54:47.408Z,35.03
2023-05-08T03:55:47.415Z,35.02
2023-05-08T03:56:47.455Z,35.02
2023-05-08T03:57:47.445Z,35.03
2023-05-08T03:58:47.459Z,35.04
2023-05-08T03:59:47.475Z,35.04
2023-05-08T04:00:47.494Z,35.07
2023-05-08T04:01:47.581Z,35.07
2023-05-08T04:02:47.567Z,35.09
2023-05-08T04:03:47.667Z,35.12
2023-05-08T04:04:47.556Z,35.13
2023-05-08T04:05:47.566Z,35.13
2023-05-08T04:06:50.415Z,35.16
2023-05-08T04:07:47.643Z,35.18
2023-05-08T04:08:47.647Z,35.17
2023-05-08T04:09:47.664Z,35.19
2023-05-08T04:10:47.676Z,35.20
2023-05-08T04:11:47.704Z,35.21
2023-05-08T04:12:47.737Z,35.21
2023-05-08T04:13:47.727Z,35.21
2023-05-08T04:14:47.740Z,35.23
2023-05-08T04:15:47.760Z,35.24
2023-05-08T04:16:47.824Z,35.27
2023-05-08T04:17:47.819Z,35.26
2023-05-08T04:18:47.804Z,35.28
2023-05-08T04:19:47.850Z,35.31
2023-05-08T04:20:47.840Z,35.29
2023-05-08T04:21:47.860Z,35.32
2023-05-08T04:22:47.877Z,35.37
2023-05-08T04:23:47.890Z,35.38
2023-05-08T04:24:47.905Z,35.37
2023-05-08T04:25:47.910Z,35.36
2023-05-08T04:26:48.284Z,35.34
2023-05-08T04:27:47.947Z,35.42
2023-05-08T04:28:48.019Z,35.42
2023-05-08T04:29:47.994Z,35.42
2023-05-08T04:30:48.007Z,35.42
2023-05-08T04:31:48.106Z,35.47
2023-05-08T04:32:48.087Z,35.48
2023-05-08T04:33:48.049Z,35.47
2023-05-08T04:34:48.077Z,35.45
2023-05-08T04:35:48.199Z,35.50
2023-05-08T04:36:48.128Z,35.49
2023-05-08T04:37:48.141Z,35.51
2023-05-08T04:38:48.144Z,35.51
2023-05-08T04:39:48.167Z,35.52
2023-05-08T04:40:48.195Z,35.55
2023-05-08T04:41:48.287Z,35.58
2023-05-08T04:42:48.220Z,35.57
2023-05-08T04:43:48.232Z,35.60
2023-05-08T04:44:48.230Z,35.60
2023-05-08T04:45:48.303Z,35.57
2023-05-08T04:46:48.349Z,35.61
2023-05-08T04:47:48.421Z,35.61
2023-05-08T04:48:48.476Z,35.62
2023-05-08T04:49:48.586Z,35.64
2023-05-08T04:50:48.638Z,35.63
2023-05-08T04:51:48.716Z,35.67
2023-05-08T04:52:48.796Z,35.68
2023-05-08T04:53:48.938Z,35.70
2023-05-08T04:54:48.944Z,35.69
2023-05-08T04:55:49.041Z,35.66
2023-05-08T04:56:49.102Z,35.68
2023-05-08T04:57:49.197Z,35.70
2023-05-08T04:58:49.264Z,35.70
2023-05-08T04:59:49.345Z,35.69
2023-05-08T05:00:50.248Z,35.70
2023-05-08T05:01:49.546Z,35.70
2023-05-08T05:02:49.626Z,35.72
2023-05-08T05:03:49.688Z,35.67
2023-05-08T05:04:49.740Z,35.70
2023-05-08T05:05:49.800Z,35.69
2023-05-08T05:06:49.905Z,35.69
2023-05-08T05:07:50.002Z,35.72
2023-05-08T05:08:50.045Z,35.72
2023-05-08T05:09:50.109Z,35.74
2023-05-08T05:10:50.197Z,35.75
2023-05-08T05:11:50.274Z,35.75
2023-05-08T05:12:50.413Z,35.78
2023-05-08T05:13:50.430Z,35.82
2023-05-08T05:14:50.515Z,35.81
2023-05-08T05:15:50.696Z,35.82
2023-05-08T05:16:50.659Z,35.84
2023-05-08T05:17:50.788Z,35.85
2023-05-08T05:18:50.837Z,35.85
2023-05-08T05:19:53.340Z,35.83
2023-05-08T05:20:51.073Z,35.83
2023-05-08T05:21:51.148Z,35.83
2023-05-08T05:22:51.474Z,35.86
2023-05-08T05:23:51.322Z,35.86
2023-05-08T05:24:51.388Z,35.87
2023-05-08T05:25:51.482Z,35.87
2023-05-08T05:26:51.567Z,35.92
2023-05-08T05:27:51.655Z,35.91
2023-05-08T05:28:51.734Z,35.90
2023-05-08T05:29:51.825Z,35.89
2023-05-08T05:30:51.918Z,35.94
2023-05-08T05:31:52.046Z,35.94
2023-05-08T05:32:52.174Z,35.97
2023-05-08T05:33:52.144Z,36.04
2023-05-08T05:34:52.761Z,36.04
2023-05-08T05:35:52.294Z,36.10
2023-05-08T05:36:52.392Z,36.07
2023-05-08T05:37:52.400Z,36.06
2023-05-08T05:38:52.414Z,36.05
2023-05-08T05:39:52.419Z,36.04
2023-05-08T05:40:52.414Z,36.03
2023-05-08T05:41:52.495Z,36.08
2023-05-08T05:42:52.452Z,36.17
2023-05-08T05:43:52.465Z,36.15
2023-05-08T05:44:52.524Z,36.19
2023-05-08T05:45:52.512Z,36.19
2023-05-08T05:46:52.720Z,36.22
2023-05-08T05:47:52.866Z,36.24
2023-05-08T05:48:52.803Z,36.37
2023-05-08T05:49:52.861Z,36.42
2023-05-08T05:50:52.969Z,36.47
2023-05-08T05:51:52.956Z,36.48
2023-05-08T05:52:52.966Z,36.49
2023-05-08T05:53:53.006Z,36.46
2023-05-08T05:54:53.755Z,36.50
2023-05-08T05:55:53.001Z,36.46
2023-05-08T05:56:53.048Z,36.44
2023-05-08T05:57:53.232Z,36.39
2023-05-08T05:58:53.087Z,36.39
2023-05-08T05:59:54.657Z,36.42
2023-05-08T06:00:53.079Z,36.37
2023-05-08T06:01:53.205Z,36.35
2023-05-08T06:02:53.409Z,36.33
2023-05-08T06:03:53.383Z,36.38
2023-05-08T06:04:53.295Z,36.50
2023-05-08T06:05:53.399Z,36.44
2023-05-08T06:06:53.467Z,36.36
2023-05-08T06:07:53.602Z,36.27
2023-05-08T06:08:53.598Z,36.19
2023-05-08T06:09:53.673Z,36.25
2023-05-08T06:10:53.751Z,36.22
2023-05-08T06:11:53.813Z,36.03
2023-05-08T06:12:54.431Z,36.02
2023-05-08T06:13:53.934Z,36.05
2023-05-08T06:14:53.990Z,36.03
2023-05-08T06:15:54.805Z,36.01
2023-05-08T06:16:54.186Z,35.92
2023-05-08T06:17:54.314Z,35.85
2023-05-08T06:18:54.231Z,35.92
2023-05-08T06:19:54.269Z,35.83
2023-05-08T06:20:54.368Z,35.80
2023-05-08T06:21:54.374Z,35.81
2023-05-08T06:22:54.490Z,35.75
2023-05-08T06:23:54.447Z,35.76
2023-05-08T06:24:54.498Z,35.80
2023-05-08T06:25:54.467Z,35.85
2023-05-08T06:26:54.473Z,35.86
2023-05-08T06:27:54.460Z,35.87
2023-05-08T06:28:54.482Z,35.90
2023-05-08T06:29:54.488Z,35.97
2023-05-08T06:30:54.578Z,35.99
2023-05-08T06:31:54.488Z,35.98
2023-05-08T06:32:54.513Z,36.03
2023-05-08T06:33:54.499Z,36.02
2023-05-08T06:34:54.521Z,36.01
2023-05-08T06:35:54.513Z,35.95
2023-05-08T06:36:54.518Z,36.04
2023-05-08T06:37:54.533Z,36.05
2023-05-08T06:38:54.547Z,36.07
2023-05-08T06:40:03.877Z,36.08
2023-05-08T06:40:54.543Z,36.07
2023-05-08T06:41:54.585Z,35.98
2023-05-08T06:42:54.584Z,36.01
2023-05-08T06:43:54.584Z,36.01
2023-05-08T06:44:54.585Z,36.01
2023-05-08T06:45:54.673Z,35.97
2023-05-08T06:46:54.623Z,36.09
2023-05-08T06:47:54.614Z,36.15
2023-05-08T06:48:54.627Z,36.10
2023-05-08T06:49:54.698Z,36.12
2023-05-08T06:50:54.640Z,36.20
2023-05-08T06:51:56.442Z,36.23
2023-05-08T06:52:54.661Z,36.26
2023-05-08T06:53:54.669Z,36.31
2023-05-08T06:54:54.698Z,36.46
2023-05-08T06:55:54.673Z,36.61
2023-05-08T06:56:54.738Z,36.65
2023-05-08T06:57:54.712Z,36.67
2023-05-08T06:59:04.893Z,36.85
2023-05-08T06:59:55.740Z,36.90
2023-05-08T07:00:54.792Z,36.84
2023-05-08T07:01:54.823Z,36.94
2023-05-08T07:02:54.825Z,36.95
2023-05-08T07:03:54.790Z,37.03
2023-05-08T07:04:54.873Z,37.03
2023-05-08T07:05:54.830Z,37.07
2023-05-08T07:06:54.871Z,37.29
2023-05-08T07:07:54.885Z,37.24
2023-05-08T07:08:54.936Z,37.25
2023-05-08T07:09:55.004Z,37.22
2023-05-08T07:10:55.107Z,37.26
2023-05-08T07:11:55.213Z,37.39
2023-05-08T07:12:55.327Z,37.47
2023-05-08T07:13:55.500Z,37.43
2023-05-08T07:14:56.645Z,37.53
2023-05-08T07:15:55.655Z,37.54
2023-05-08T07:16:55.704Z,37.69
2023-05-08T07:17:55.744Z,37.69
2023-05-08T07:18:55.801Z,37.72
2023-05-08T07:19:55.832Z,37.76
2023-05-08T07:20:55.870Z,37.76
2023-05-08T07:21:55.962Z,37.89
2023-05-08T07:22:56.015Z,38.00
2023-05-08T07:23:56.072Z,38.01
2023-05-08T07:24:56.126Z,38.00
2023-05-08T07:25:56.155Z,37.93
2023-05-08T07:26:56.176Z,38.04
2023-05-08T07:27:56.232Z,37.98
2023-05-08T07:28:56.221Z,37.97
2023-05-08T07:29:56.228Z,38.06
2023-05-08T07:30:56.261Z,38.11
2023-05-08T07:31:56.282Z,38.13
2023-05-08T07:32:56.385Z,38.24
2023-05-08T07:33:56.298Z,38.16
2023-05-08T07:34:56.336Z,38.22
2023-05-08T07:35:56.334Z,38.27
2023-05-08T07:36:56.374Z,38.16
2023-05-08T07:37:56.408Z,38.15
2023-05-08T07:38:56.412Z,38.12
2023-05-08T07:39:56.424Z,38.12
2023-05-08T07:40:56.467Z,38.11
2023-05-08T07:41:56.476Z,38.09
2023-05-08T07:42:56.474Z,38.00
2023-05-08T07:43:56.551Z,38.03
2023-05-08T07:44:56.573Z,38.02
2023-05-08T07:45:56.593Z,38.01
2023-05-08T07:46:56.696Z,37.96
2023-05-08T07:47:56.729Z,37.97
2023-05-08T07:48:56.646Z,38.01
2023-05-08T07:49:56.677Z,37.99
2023-05-08T07:50:56.725Z,37.94
2023-05-08T07:51:56.690Z,38.01
2023-05-08T07:52:56.705Z,37.91
2023-05-08T07:53:56.720Z,38.08
2023-05-08T07:54:56.799Z,37.97
2023-05-08T07:55:56.890Z,37.94
2023-05-08T07:56:56.948Z,37.90
2023-05-08T07:57:57.044Z,37.90
2023-05-08T07:58:57.108Z,37.97
2023-05-08T07:59:57.194Z,37.92
2023-05-08T08:00:57.405Z,37.85
2023-05-08T08:01:57.381Z,37.77
2023-05-08T08:02:57.569Z,37.75
2023-05-08T08:03:57.493Z,37.84
2023-05-08T08:04:57.299Z,37.83
2023-05-08T08:05:57.336Z,37.92
2023-05-08T08:06:57.374Z,37.88
2023-05-08T08:07:57.368Z,37.78
2023-05-08T08:08:57.360Z,37.82
2023-05-08T08:09:57.393Z,37.72
2023-05-08T08:10:57.398Z,37.75
2023-05-08T08:11:57.402Z,37.67
2023-05-08T08:12:57.529Z,37.72
2023-05-08T08:13:57.463Z,37.78
2023-05-08T08:14:57.514Z,37.84
2023-05-08T08:15:57.462Z,37.84
2023-05-08T08:16:57.494Z,37.89
2023-05-08T08:17:57.506Z,37.94
2023-05-08T08:18:57.604Z,37.97
2023-05-08T08:19:57.520Z,37.95
2023-05-08T08:20:57.582Z,37.99
2023-05-08T08:21:57.558Z,38.10
2023-05-08T08:22:57.623Z,38.20
2023-05-08T08:23:57.687Z,38.29
2023-05-08T08:24:57.808Z,38.30
2023-05-08T08:25:57.846Z,38.40
2023-05-08T08:26:58.023Z,38.38
2023-05-08T08:27:57.964Z,38.32
2023-05-08T08:28:57.973Z,38.34
2023-05-08T08:30:13.001Z,38.39
2023-05-08T08:30:59.015Z,38.36
2023-05-08T08:31:58.110Z,38.37
2023-05-08T08:32:58.161Z,38.37
2023-05-08T08:33:58.058Z,38.37
2023-05-08T08:34:58.201Z,38.30
2023-05-08T08:35:58.091Z,38.36
2023-05-08T08:36:58.129Z,38.39
2023-05-08T08:37:58.151Z,38.39
2023-05-08T08:38:58.150Z,38.44
2023-05-08T08:39:58.177Z,38.41
2023-05-08T08:40:58.204Z,38.48
2023-05-08T08:41:58.212Z,38.54
2023-05-08T08:42:58.270Z,38.51
2023-05-08T08:43:58.267Z,38.49
2023-05-08T08:44:58.293Z,38.48
2023-05-08T08:45:58.340Z,38.54
2023-05-08T08:46:58.385Z,38.50
2023-05-08T08:47:58.417Z,38.45
2023-05-08T08:48:58.379Z,38.43
2023-05-08T08:49:58.476Z,38.38
2023-05-08T08:50:58.585Z,38.36
2023-05-08T08:51:58.498Z,38.43
2023-05-08T08:52:58.533Z,38.35
2023-05-08T08:53:58.546Z,38.41
2023-05-08T08:54:58.671Z,38.58
2023-05-08T08:55:58.603Z,38.70
2023-05-08T08:56:58.648Z,38.69
2023-05-08T08:57:58.695Z,38.73
2023-05-08T08:58:58.729Z,38.74
2023-05-08T08:59:58.773Z,38.70
2023-05-08T09:00:58.806Z,38.67
2023-05-08T09:01:58.878Z,38.67
2023-05-08T09:02:59.053Z,38.59
2023-05-08T09:03:58.971Z,38.55
2023-05-08T09:04:58.884Z,38.57
2023-05-08T09:05:58.888Z,38.51
2023-05-08T09:06:59.009Z,38.50
2023-05-08T09:07:58.934Z,38.50
2023-05-08T09:08:58.988Z,38.37
2023-05-08T09:09:58.986Z,38.40
2023-05-08T09:10:59.033Z,38.37
2023-05-08T09:11:59.063Z,38.28
2023-05-08T09:12:59.438Z,38.35
2023-05-08T09:13:59.168Z,38.20
2023-05-08T09:14:59.181Z,38.24
2023-05-08T09:15:59.169Z,38.26
2023-05-08T09:16:59.174Z,38.27
2023-05-08T09:17:59.291Z,38.27
2023-05-08T09:18:59.213Z,38.27
2023-05-08T09:19:59.250Z,38.33
2023-05-08T09:20:59.264Z,38.25
2023-05-08T09:21:59.297Z,38.30
2023-05-08T09:22:59.414Z,38.33
2023-05-08T09:23:59.324Z,38.32
2023-05-08T09:24:59.356Z,38.26
2023-05-08T09:25:59.434Z,38.29
2023-05-08T09:26:59.426Z,38.29
2023-05-08T09:27:59.500Z,38.25
2023-05-08T09:28:59.612Z,38.29
2023-05-08T09:29:59.483Z,38.33
2023-05-08T09:30:59.509Z,38.47
2023-05-08T09:31:59.561Z,38.42
2023-05-08T09:32:59.895Z,38.54
2023-05-08T09:33:59.573Z,38.58
2023-05-08T09:34:59.646Z,38.50
2023-05-08T09:36:00.735Z,38.46
2023-05-08T09:36:59.721Z,38.65
2023-05-08T09:38:28.245Z,38.68
2023-05-08T09:39:12.833Z,38.71
2023-05-08T09:40:01.771Z,38.71
2023-05-08T09:40:59.750Z,38.80
2023-05-08T09:42:02.386Z,38.85
2023-05-08T09:43:00.037Z,38.74
2023-05-08T09:44:00.124Z,38.70
2023-05-08T09:45:00.167Z,38.64
2023-05-08T09:46:00.314Z,38.64
2023-05-08T09:47:00.900Z,38.61
2023-05-08T09:48:00.349Z,38.57
2023-05-08T09:49:00.893Z,38.54
2023-05-08T09:50:00.402Z,38.58
2023-05-08T09:51:00.395Z,38.50
2023-05-08T09:52:00.403Z,38.64
2023-05-08T09:53:03.804Z,38.66
2023-05-08T09:54:00.446Z,38.71
2023-05-08T09:55:00.583Z,38.78
2023-05-08T09:56:00.469Z,38.83
2023-05-08T09:57:00.528Z,38.85
2023-05-08T09:58:00.599Z,38.82
2023-05-08T09:59:01.350Z,38.96
2023-05-08T10:00:00.680Z,38.89
2023-05-08T10:01:00.693Z,38.89
2023-05-08T10:02:00.642Z,38.91
2023-05-08T10:03:00.850Z,38.91
2023-05-08T10:04:01.947Z,38.92
2023-05-08T10:05:07.746Z,38.77
2023-05-08T10:08:39.930Z,39.00
2023-05-08T10:09:47.515Z,38.91
2023-05-08T10:11:58.208Z,39.05
2023-05-08T10:12:58.249Z,38.98
2023-05-08T10:13:58.206Z,38.92
2023-05-08T10:14:58.279Z,38.93
2023-05-08T10:15:58.204Z,38.90
2023-05-08T10:17:01.655Z,38.86
2023-05-08T10:17:59.292Z,38.88
2023-05-08T10:18:58.219Z,39.15
2023-05-08T10:19:58.250Z,38.91
2023-05-08T10:21:14.011Z,38.87
2023-05-08T10:21:59.485Z,38.85
2023-05-08T10:22:58.517Z,38.90
2023-05-08T10:23:58.574Z,38.89
2023-05-08T10:24:58.584Z,38.91
2023-05-08T10:25:58.614Z,38.94
2023-05-08T10:27:06.954Z,38.85
2023-05-08T10:27:59.751Z,38.81
2023-05-08T10:28:58.677Z,38.85
2023-05-08T10:29:58.713Z,38.87
2023-05-08T10:30:58.778Z,38.91
2023-05-08T10:31:58.738Z,38.89
2023-05-08T10:32:58.809Z,38.92
2023-05-08T10:33:58.775Z,38.93
2023-05-08T10:34:58.849Z,38.92
2023-05-08T10:35:58.814Z,38.91
2023-05-08T10:36:58.856Z,38.94
2023-05-08T10:37:58.860Z,39.08
2023-05-08T10:38:58.915Z,39.12
2023-05-08T10:39:58.900Z,39.11
2023-05-08T10:40:58.938Z,39.02
2023-05-08T10:41:58.933Z,38.91
2023-05-08T10:42:58.965Z,38.81
2023-05-08T10:44:01.092Z,38.65
2023-05-08T10:44:59.005Z,38.55
2023-05-08T10:45:59.028Z,38.39
2023-05-08T10:46:59.794Z,38.26
2023-05-08T10:47:59.104Z,38.12
2023-05-08T10:48:59.043Z,38.02
2023-05-08T10:49:59.041Z,37.87
2023-05-08T10:50:59.051Z,37.74
2023-05-08T10:51:59.046Z,37.64
2023-05-08T10:52:59.094Z,37.54
2023-05-08T10:53:59.098Z,37.42
2023-05-08T10:54:59.090Z,37.33
2023-05-08T10:55:59.096Z,37.24
2023-05-08T10:56:59.120Z,37.18
2023-05-08T10:57:59.130Z,37.09
2023-05-08T10:58:59.132Z,37.02
2023-05-08T10:59:59.137Z,36.93
2023-05-08T11:00:59.133Z,36.86
2023-05-08T11:01:59.225Z,36.81
2023-05-08T11:02:59.195Z,36.74
2023-05-08T11:03:59.262Z,36.70
2023-05-08T11:04:59.167Z,36.61
2023-05-08T11:05:59.175Z,36.67
2023-05-08T11:06:59.196Z,36.63
2023-05-08T11:07:59.246Z,36.57
2023-05-08T11:09:00.902Z,36.48
2023-05-08T11:09:59.193Z,36.42
2023-05-08T11:10:59.197Z,36.36
2023-05-08T11:11:59.246Z,36.31
2023-05-08T11:12:59.254Z,36.22
2023-05-08T11:13:59.251Z,36.22
2023-05-08T11:14:59.770Z,36.17
2023-05-08T11:15:59.286Z,36.10
2023-05-08T11:16:59.247Z,36.05
2023-05-08T11:17:59.330Z,36.00
2023-05-08T11:18:59.238Z,35.99
2023-05-08T11:19:59.254Z,35.95
2023-05-08T11:20:59.284Z,35.91
2023-05-08T11:21:59.336Z,35.88
2023-05-08T11:22:59.410Z,35.84
2023-05-08T11:23:59.426Z,35.81
2023-05-08T11:24:59.513Z,35.77
2023-05-08T11:25:59.648Z,35.75
2023-05-08T11:26:59.542Z,35.72
2023-05-08T11:27:59.529Z,35.72
2023-05-08T11:28:59.601Z,35.69
2023-05-08T11:29:59.633Z,35.68
2023-05-08T11:30:59.691Z,35.66
2023-05-08T11:31:59.763Z,35.67
2023-05-08T11:32:59.773Z,35.62
2023-05-08T11:33:59.737Z,35.58
2023-05-08T11:34:59.708Z,35.55
2023-05-08T11:35:59.746Z,35.49
2023-05-08T11:36:59.747Z,35.49
2023-05-08T11:37:59.704Z,35.46
2023-05-08T11:38:59.717Z,35.46
2023-05-08T11:39:59.722Z,35.42
2023-05-08T11:40:59.734Z,35.40
2023-05-08T11:41:59.736Z,35.45
2023-05-08T11:42:59.710Z,35.36
2023-05-08T11:43:59.804Z,35.38
2023-05-08T11:44:59.703Z,35.42
2023-05-08T11:45:59.720Z,35.37
2023-05-08T11:46:59.736Z,35.92
2023-05-08T11:47:59.740Z,36.14
2023-05-08T11:48:59.692Z,35.93
2023-05-08T11:49:59.673Z,35.86
2023-05-08T11:50:59.668Z,35.85
2023-05-08T11:51:59.736Z,35.82
2023-05-08T11:52:59.670Z,35.88
2023-05-08T11:53:59.671Z,35.86
2023-05-08T11:54:59.666Z,35.90
2023-05-08T11:55:59.671Z,35.89
2023-05-08T11:56:59.745Z,35.86
2023-05-08T11:57:59.681Z,35.84
2023-05-08T11:58:59.678Z,35.87
2023-05-08T11:59:59.655Z,35.84
2023-05-08T12:00:59.722Z,35.88
2023-05-08T12:02:07.946Z,35.84
2023-05-08T12:03:00.781Z,35.93
2023-05-08T12:03:59.986Z,35.91
2023-05-08T12:04:59.695Z,35.93
2023-05-08T12:05:59.702Z,35.92
2023-05-08T12:06:59.684Z,35.93
2023-05-08T12:07:59.615Z,35.97
2023-05-08T12:08:59.584Z,35.98
2023-05-08T12:09:59.607Z,35.99
2023-05-08T12:10:59.590Z,36.03
2023-05-08T12:11:59.552Z,36.05
2023-05-08T12:12:59.605Z,36.04
2023-05-08T12:13:59.610Z,36.07
2023-05-08T12:14:59.600Z,36.09
2023-05-08T12:15:59.552Z,36.11
2023-05-08T12:16:59.589Z,36.13
2023-05-08T12:17:59.694Z,36.17
2023-05-08T12:18:59.505Z,36.14
2023-05-08T12:19:59.500Z,36.18
2023-05-08T12:20:59.466Z,36.21
2023-05-08T12:21:59.471Z,36.25
2023-05-08T12:22:59.544Z,36.31
2023-05-08T12:23:59.780Z,36.36
2023-05-08T12:24:59.466Z,36.37
2023-05-08T12:25:59.449Z,36.44
2023-05-08T12:26:59.412Z,36.43
2023-05-08T12:27:59.408Z,36.53
